الصفحة الرئيسية
METAR-TAF:

METAR-TAF

مطار :

ماليه, جزر المالديف

دائرة عرض: 04-12N, خط طول: 073-32E, ارتفاع: 2 متر

مراقبة الطقس الحالي

تاريخ ووقت الإصدار 1ساعة و 13 دقيقة قبل الساعة 03:00UTC
ريح 12 عقدة من الشرق/الشمال الشرقي
درجة الحرارة 29°درجة مئوية
الرطوبة 70%
ضغط 1013 hPa
الرؤية 10 كم أو أكثر
غيوم قليلة على ارتفاع 1800 قدم
غيوم مفككة على ارتفاع 29000 قدم

METAR: VRMM 220300Z 07012KT 9999 FEW018 BKN290 29/23 Q1013 NOSIG

زمن: 09:13 (04:13 UTC)

توقعات

تاريخ ووقت الإصدار 5ساعات و 13 دقيقة قبل الساعة 23:00UTC
التوقعات صالحة من22 الساعة 00 UTC إلى 23 الساعة 06 UTC
ريح 13 عقدة من الشمال الشرقي
الرؤية: 9000 متر
غيوم قليلة على ارتفاع 1800 قدم
مؤقت
من 22 الساعة 03 UTC إلى 22 الساعة 09 UTC
غيوم قليلة على ارتفاع 1900 قدم, مزنة ركامية.

TAF: VRMM 212300Z 2200/2306 04013KT 9000 FEW018 TEMPO 2203/2209 FEW019CB

أرصاد الطقس والتوقعات من أكثر من 4000 مطار (تقارير الطقس للمطار METAR والتنبؤ بالطقس بالمطارTAF).

المحطات المتاحة هي النقط الصفراء والحمراء على الخريطة.

حرك المؤشر فوق النقطة لمعرفة اسم المحطة.

ثم انقر لمعرفة أرصاد وتوقعات الطقس.

لتغيير الخارطة: اضغط على الأزرار الخضراء مع رمز الصليب الأسود للتكبير. على الزر الأخضر مع شرطة للتصغير، أو على الأسهم الخضراء للخرائط المجاورة.


METAR-TAF: